createdAt,value
2023-02-09T00:02:04.581Z,78.78
2023-02-09T00:07:07.914Z,78.60
2023-02-09T00:12:30.577Z,78.51
2023-02-09T00:17:36.140Z,78.42
2023-02-09T00:22:39.249Z,78.47
2023-02-09T00:27:42.451Z,78.55
2023-02-09T00:32:45.556Z,78.56
2023-02-09T00:37:48.662Z,78.69
2023-02-09T00:42:51.872Z,78.67
2023-02-09T00:47:55.965Z,78.54
2023-02-09T00:52:59.106Z,78.55
2023-02-09T00:58:02.355Z,78.43
2023-02-09T01:03:05.527Z,78.04
2023-02-09T01:08:08.982Z,77.67
2023-02-09T01:13:12.141Z,77.45
2023-02-09T01:18:15.662Z,77.44
2023-02-09T01:23:18.867Z,77.46
2023-02-09T01:28:22.149Z,77.50
2023-02-09T01:33:25.584Z,77.43
2023-02-09T01:38:29.520Z,77.40
2023-02-09T01:44:00.923Z,77.36
2023-02-09T01:49:21.582Z,77.21
2023-02-09T01:54:27.144Z,76.94
2023-02-09T01:59:33.738Z,76.97
2023-02-09T02:04:38.265Z,76.93
2023-02-09T02:09:43.374Z,77.00
2023-02-09T02:14:46.658Z,77.13
2023-02-09T02:20:31.135Z,77.19
2023-02-09T02:26:20.829Z,77.33
2023-02-09T02:31:51.626Z,77.40
2023-02-09T02:37:11.688Z,77.58
2023-02-09T02:42:44.489Z,77.68
2023-02-09T02:48:00.941Z,77.61
2023-02-09T02:53:08.715Z,77.51
2023-02-09T02:58:16.079Z,77.44
2023-02-09T03:03:24.929Z,77.55
2023-02-09T03:08:27.986Z,77.69
2023-02-09T03:14:10.928Z,77.72
2023-02-09T03:20:03.196Z,77.88
2023-02-09T03:25:40.712Z,77.96
2023-02-09T03:30:50.161Z,78.21
2023-02-09T03:36:00.192Z,78.28
2023-02-09T03:41:03.538Z,78.39
2023-02-09T03:46:06.667Z,78.46
2023-02-09T03:51:10.670Z,78.61
2023-02-09T03:56:13.674Z,78.46
2023-02-09T04:01:16.847Z,78.39
2023-02-09T04:06:19.982Z,78.23
2023-02-09T04:11:23.623Z,78.21
2023-02-09T04:16:27.301Z,78.34
2023-02-09T04:21:31.150Z,78.50
2023-02-09T04:26:34.768Z,78.63
2023-02-09T04:31:38.014Z,78.79
2023-02-09T04:36:41.186Z,78.94
2023-02-09T04:41:44.287Z,78.96
2023-02-09T04:46:47.411Z,78.82
2023-02-09T04:51:50.506Z,78.81
2023-02-09T04:57:13.517Z,78.86
2023-02-09T05:02:17.803Z,78.89
2023-02-09T05:07:21.016Z,79.01
2023-02-09T05:12:24.128Z,79.11
2023-02-09T05:17:27.097Z,79.18
2023-02-09T05:22:30.346Z,79.32
2023-02-09T05:27:33.444Z,79.34
2023-02-09T05:32:36.561Z,79.25
2023-02-09T05:37:39.761Z,79.06
2023-02-09T05:42:43.173Z,79.03
2023-02-09T05:47:46.393Z,79.00
2023-02-09T05:52:49.704Z,79.00
2023-02-09T05:57:52.910Z,79.04
2023-02-09T06:02:56.619Z,78.99
2023-02-09T06:07:59.752Z,79.00
2023-02-09T06:13:03.133Z,78.99
2023-02-09T06:18:06.163Z,78.86
2023-02-09T06:23:09.452Z,78.72
2023-02-09T06:28:12.716Z,78.47
2023-02-09T06:33:15.872Z,78.35
2023-02-09T06:38:19.527Z,78.28
2023-02-09T06:43:22.594Z,78.25
2023-02-09T06:48:25.713Z,78.14
2023-02-09T06:53:29.117Z,77.98
2023-02-09T06:58:32.853Z,77.75
2023-02-09T07:03:38.305Z,77.61
2023-02-09T07:08:42.941Z,77.24
2023-02-09T07:13:47.076Z,76.58
2023-02-09T07:18:50.177Z,76.11
2023-02-09T07:23:56.008Z,75.79
2023-02-09T07:28:59.049Z,75.47
2023-02-09T07:34:02.301Z,75.36
2023-02-09T07:39:05.589Z,75.15
2023-02-09T07:44:12.284Z,74.89
2023-02-09T07:49:15.464Z,74.68
2023-02-09T07:54:18.686Z,74.50
2023-02-09T07:59:21.881Z,74.19
2023-02-09T08:04:25.010Z,73.95
2023-02-09T08:09:29.537Z,73.46
2023-02-09T08:14:44.601Z,73.29
2023-02-09T08:20:09.535Z,73.22
2023-02-09T08:25:16.835Z,73.26
2023-02-09T08:30:20.884Z,73.19
2023-02-09T08:35:23.995Z,73.29
2023-02-09T08:40:27.290Z,73.21
2023-02-09T08:45:30.688Z,73.00
2023-02-09T08:50:35.454Z,72.91
2023-02-09T08:55:39.380Z,71.99
2023-02-09T09:00:42.499Z,70.96
2023-02-09T09:05:46.047Z,69.91
2023-02-09T09:10:49.412Z,69.36
2023-02-09T09:15:55.476Z,68.94
2023-02-09T09:20:58.697Z,68.75
2023-02-09T09:26:03.539Z,67.96
2023-02-09T09:31:13.382Z,67.72
2023-02-09T09:36:16.720Z,67.45
2023-02-09T09:41:40.207Z,67.36
2023-02-09T09:46:48.731Z,66.89
2023-02-09T09:52:20.460Z,65.73
2023-02-09T09:57:30.580Z,65.88
2023-02-09T10:02:34.936Z,65.60
2023-02-09T10:07:43.164Z,65.67
2023-02-09T10:12:51.169Z,65.82
2023-02-09T10:17:56.718Z,66.00
2023-02-09T10:23:00.258Z,65.99
2023-02-09T10:28:06.701Z,65.86
2023-02-09T10:33:15.740Z,65.90
2023-02-09T10:38:24.100Z,65.46
2023-02-09T10:43:33.928Z,65.11
2023-02-09T10:48:44.194Z,65.19
2023-02-09T10:54:20.425Z,65.29
2023-02-09T10:59:26.096Z,64.97
2023-02-09T11:04:41.248Z,64.61
2023-02-09T11:09:51.479Z,64.74
2023-02-09T11:14:55.791Z,64.44
2023-02-09T11:20:10.884Z,64.21
2023-02-09T11:25:31.251Z,64.01
2023-02-09T11:31:14.679Z,63.92
2023-02-09T11:36:42.864Z,64.18
2023-02-09T11:42:14.319Z,64.43
2023-02-09T11:47:58.313Z,65.07
2023-02-09T11:53:30.555Z,65.43
2023-02-09T11:58:42.160Z,65.49
2023-02-09T12:04:05.137Z,66.10
2023-02-09T12:09:25.052Z,65.63
2023-02-09T12:14:46.888Z,65.46
2023-02-09T12:20:00.573Z,65.49
2023-02-09T12:25:06.103Z,65.03
2023-02-09T12:30:40.620Z,64.76
2023-02-09T12:35:57.664Z,64.89
2023-02-09T12:41:07.388Z,65.15
2023-02-09T12:46:28.712Z,65.22
2023-02-09T12:51:55.804Z,65.32
2023-02-09T12:57:17.262Z,65.06
2023-02-09T13:02:50.137Z,64.15
2023-02-09T13:08:12.126Z,63.94
2023-02-09T13:13:26.170Z,62.66
2023-02-09T13:19:00.943Z,62.19
2023-02-09T13:24:14.023Z,60.84
2023-02-09T13:29:30.403Z,60.90
2023-02-09T13:34:48.925Z,60.62
2023-02-09T13:40:01.062Z,60.88
2023-02-09T13:45:18.723Z,60.60
2023-02-09T13:50:27.697Z,61.31
2023-02-09T13:55:32.102Z,61.33
2023-02-09T14:00:42.666Z,61.13
2023-02-09T14:06:03.306Z,61.03
2023-02-09T14:11:28.059Z,61.32
2023-02-09T14:16:47.996Z,60.55
2023-02-09T14:21:55.833Z,60.56
2023-02-09T14:27:20.443Z,61.22
2023-02-09T14:32:40.512Z,61.84
2023-02-09T14:37:45.162Z,62.65
2023-02-09T14:43:09.201Z,62.52
2023-02-09T14:48:25.224Z,62.25
2023-02-09T14:53:31.838Z,61.49
2023-02-09T14:58:35.204Z,61.33
2023-02-09T15:03:38.815Z,62.35
2023-02-09T15:08:42.579Z,63.33
2023-02-09T15:13:55.080Z,63.97
2023-02-09T15:18:59.197Z,64.45
2023-02-09T15:24:02.416Z,65.07
2023-02-09T15:29:15.846Z,65.85
2023-02-09T15:34:18.982Z,66.46
2023-02-09T15:39:28.617Z,66.93
2023-02-09T15:44:50.461Z,67.39
2023-02-09T15:49:53.882Z,67.47
2023-02-09T15:54:57.107Z,67.78
2023-02-09T16:00:00.348Z,68.25
2023-02-09T16:05:04.528Z,68.68
2023-02-09T16:10:22.683Z,68.68
2023-02-09T16:15:27.664Z,68.54
2023-02-09T16:20:31.690Z,68.82
2023-02-09T16:25:35.015Z,68.93
2023-02-09T16:30:55.908Z,69.28
2023-02-09T16:36:02.285Z,69.39
2023-02-09T16:41:05.737Z,69.71
2023-02-09T16:46:12.805Z,69.91
2023-02-09T16:51:16.654Z,70.09
2023-02-09T16:56:20.791Z,70.33
2023-02-09T17:01:24.270Z,70.58
2023-02-09T17:06:30.241Z,70.79
2023-02-09T17:11:33.446Z,71.01
2023-02-09T17:16:43.467Z,71.15
2023-02-09T17:21:46.621Z,71.45
2023-02-09T17:26:50.060Z,71.68
2023-02-09T17:31:54.034Z,71.93
2023-02-09T17:36:58.810Z,71.97
2023-02-09T17:42:02.120Z,71.84
2023-02-09T17:47:05.435Z,71.72
2023-02-09T17:52:18.664Z,71.90
2023-02-09T17:57:21.892Z,72.29
2023-02-09T18:02:25.184Z,72.39
2023-02-09T18:07:28.615Z,72.26
2023-02-09T18:12:31.716Z,72.35
2023-02-09T18:17:35.031Z,72.68
2023-02-09T18:22:38.245Z,72.90
2023-02-09T18:27:41.423Z,73.04
2023-02-09T18:32:44.756Z,73.00
2023-02-09T18:37:49.335Z,72.94
2023-02-09T18:42:53.738Z,73.02
2023-02-09T18:47:57.982Z,73.09
2023-02-09T18:53:03.797Z,73.17
2023-02-09T18:58:09.605Z,73.21
2023-02-09T19:03:17.207Z,73.22
2023-02-09T19:08:20.315Z,73.32
2023-02-09T19:13:23.532Z,73.42
2023-02-09T19:18:27.785Z,73.44
2023-02-09T19:23:31.091Z,73.54
2023-02-09T19:28:35.355Z,73.60
2023-02-09T19:33:38.717Z,73.54
2023-02-09T19:38:41.828Z,73.58
2023-02-09T19:43:45.102Z,73.54
2023-02-09T19:48:48.662Z,73.53
2023-02-09T19:53:51.868Z,73.40
2023-02-09T19:58:55.067Z,73.38
2023-02-09T20:03:59.120Z,73.32
2023-02-09T20:09:03.039Z,73.13
2023-02-09T20:14:06.242Z,73.18
2023-02-09T20:19:09.446Z,73.31
2023-02-09T20:24:14.811Z,73.67
2023-02-09T20:29:19.353Z,73.65
2023-02-09T20:34:22.564Z,73.64
2023-02-09T20:39:25.976Z,73.70
2023-02-09T20:44:48.342Z,73.78
2023-02-09T20:49:51.838Z,73.84
2023-02-09T20:54:55.471Z,73.74
2023-02-09T21:00:00.653Z,73.72
2023-02-09T21:05:08.047Z,73.56
2023-02-09T21:10:13.115Z,73.54
2023-02-09T21:15:16.722Z,73.40
2023-02-09T21:20:19.899Z,73.41
2023-02-09T21:25:23.095Z,73.13
2023-02-09T21:30:28.046Z,72.85
2023-02-09T21:35:31.157Z,72.65
2023-02-09T21:40:34.776Z,72.78
2023-02-09T21:45:39.845Z,72.90
2023-02-09T21:50:42.952Z,72.94
2023-02-09T21:55:46.087Z,72.98
2023-02-09T22:00:58.168Z,72.96
2023-02-09T22:06:02.485Z,73.03
2023-02-09T22:11:07.641Z,72.92
2023-02-09T22:16:20.078Z,72.71
2023-02-09T22:21:23.177Z,72.44
2023-02-09T22:26:26.610Z,72.29
2023-02-09T22:31:29.689Z,72.01
2023-02-09T22:36:34.020Z,72.13
2023-02-09T22:41:37.539Z,71.86
2023-02-09T22:46:44.096Z,72.00
2023-02-09T22:51:50.024Z,72.21
2023-02-09T22:56:53.452Z,72.10
2023-02-09T23:01:56.655Z,72.01
2023-02-09T23:07:01.716Z,71.82
2023-02-09T23:12:05.652Z,71.43
2023-02-09T23:17:08.742Z,71.30
2023-02-09T23:22:11.929Z,71.44
2023-02-09T23:27:15.245Z,71.48
2023-02-09T23:32:18.548Z,71.53
2023-02-09T23:37:36.806Z,71.57
2023-02-09T23:42:40.725Z,71.21
2023-02-09T23:47:43.933Z,71.22
2023-02-09T23:52:47.246Z,70.86
2023-02-09T23:57:50.395Z,70.31
